Time;durP1;ratioP1;P1;durP2;ratioP2;P2;SDS_P1;SDS_P2;PMS_P1;PMS_P2;Temp;Humidity;BMP_temperature;BMP_pressure;BME280_temperature;BME280_humidity;BME280_pressure;Samples;Min_cycle;Max_cycle;Signal;HPM_P1;HPM_P2
2024/01/04 00:00:06;;;;;;;21.20;12.10;;;;;;;-2.45;100.00;98962.72;109238;1253;67368;-53
2024/01/04 00:02:34;;;;;;;19.40;11.40;;;;;;;-2.40;100.00;98962.33;109275;1253;71343;-51
2024/01/04 00:05:02;;;;;;;18.80;11.30;;;;;;;-2.36;100.00;98960.75;109358;1252;60081;-52
2024/01/04 00:07:31;;;;;;;18.50;11.30;;;;;;;-2.32;100.00;98956.98;109316;1253;60126;-52
2024/01/04 00:09:58;;;;;;;22.70;12.00;;;;;;;-2.29;100.00;98953.20;109261;1253;74765;-52
2024/01/04 00:12:26;;;;;;;21.60;12.20;;;;;;;-2.24;100.00;98948.30;109227;1254;68888;-51
2024/01/04 00:14:54;;;;;;;20.50;12.00;;;;;;;-2.17;100.00;98942.08;109205;1253;72740;-52
2024/01/04 00:17:22;;;;;;;19.50;11.10;;;;;;;-2.14;100.00;98939.27;109335;1253;61250;-52
2024/01/04 00:19:50;;;;;;;21.60;12.20;;;;;;;-2.10;100.00;98940.77;109214;1253;58925;-51
2024/01/04 00:22:18;;;;;;;18.50;11.60;;;;;;;-2.05;100.00;98930.64;109229;1254;75141;-51
2024/01/04 00:24:45;;;;;;;19.50;11.20;;;;;;;-2.00;100.00;98926.42;109223;1253;65840;-52
2024/01/04 00:27:13;;;;;;;19.90;11.40;;;;;;;-1.97;100.00;98921.58;109170;1253;72787;-52
2024/01/04 00:29:44;;;;;;;19.20;10.90;;;;;;;-1.95;100.00;98921.39;109215;1253;59642;-51
2024/01/04 00:32:12;;;;;;;19.40;11.70;;;;;;;-1.95;100.00;98917.48;109229;1253;61163;-51
2024/01/04 00:34:39;;;;;;;20.30;12.10;;;;;;;-1.95;100.00;98911.36;109260;1253;73503;-52
2024/01/04 00:37:07;;;;;;;19.40;11.30;;;;;;;-1.93;100.00;98903.08;109255;1253;65926;-53
2024/01/04 00:39:35;;;;;;;19.80;12.10;;;;;;;-1.90;100.00;98902.44;109236;1253;72750;-52
2024/01/04 00:42:03;;;;;;;18.10;11.70;;;;;;;-1.85;100.00;98895.00;109200;1255;60958;-52
2024/01/04 00:44:30;;;;;;;21.40;12.30;;;;;;;-1.79;100.00;98893.06;109302;1254;58982;-53
2024/01/04 00:46:58;;;;;;;19.00;11.40;;;;;;;-1.71;100.00;98887.12;109315;1253;74747;-53
2024/01/04 00:49:25;;;;;;;20.00;12.70;;;;;;;-1.65;100.00;98882.67;109176;1254;65515;-52
2024/01/04 00:51:53;;;;;;;21.40;11.60;;;;;;;-1.59;100.00;98882.15;109276;1253;72768;-52
2024/01/04 00:54:21;;;;;;;20.60;10.90;;;;;;;-1.54;100.00;98880.30;109393;1253;60926;-52
2024/01/04 00:56:49;;;;;;;19.80;12.20;;;;;;;-1.52;100.00;98881.07;109220;1253;59195;-51
2024/01/04 00:59:16;;;;;;;22.50;12.50;;;;;;;-1.51;100.00;98877.29;109245;1253;73484;-54
2024/01/04 01:01:44;;;;;;;20.70;12.30;;;;;;;-1.51;100.00;98876.07;109190;1254;67524;-52
2024/01/04 01:04:12;;;;;;;21.80;12.00;;;;;;;-1.48;100.00;98866.64;109233;1253;71362;-52
2024/01/04 01:06:39;;;;;;;18.60;11.40;;;;;;;-1.46;100.00;98862.30;109218;1253;60986;-52
2024/01/04 01:09:07;;;;;;;20.20;12.30;;;;;;;-1.40;100.00;98854.16;109242;1253;60167;-52
2024/01/04 01:11:35;;;;;;;21.10;13.20;;;;;;;-1.37;100.00;98844.42;109029;1253;73438;-52
2024/01/04 01:14:03;;;;;;;20.80;12.40;;;;;;;-1.34;100.00;98840.08;109210;1253;67436;-52
2024/01/04 01:16:31;;;;;;;19.20;11.60;;;;;;;-1.31;100.00;98837.30;109216;1254;72766;-51
2024/01/04 01:18:59;;;;;;;21.70;12.80;;;;;;;-1.30;100.00;98834.79;109220;1253;61135;-52
2024/01/04 01:21:27;;;;;;;19.40;12.30;;;;;;;-1.30;100.00;98833.58;109201;1253;59307;-52
2024/01/04 01:23:54;;;;;;;21.50;12.10;;;;;;;-1.29;100.00;98828.02;109254;1254;72886;-52
2024/01/04 01:26:22;;;;;;;20.50;12.80;;;;;;;-1.29;100.00;98827.72;109242;1253;66169;-52
2024/01/04 01:28:50;;;;;;;23.30;12.40;;;;;;;-1.29;100.00;98825.31;109217;1253;72709;-52
2024/01/04 01:31:17;;;;;;;19.70;11.50;;;;;;;-1.29;100.00;98822.05;109247;1253;60983;-52
2024/01/04 01:33:45;;;;;;;21.80;12.10;;;;;;;-1.26;100.00;98819.91;109224;1253;59013;-52
2024/01/04 01:36:14;;;;;;;20.30;11.80;;;;;;;-1.24;100.00;98816.98;109237;1253;74770;-52
2024/01/04 01:38:42;;;;;;;21.00;13.50;;;;;;;-1.22;100.00;98812.52;109375;1253;66779;-52
2024/01/04 01:41:10;;;;;;;19.30;11.60;;;;;;;-1.19;100.00;98809.58;109259;1253;71458;-55
2024/01/04 01:43:38;;;;;;;22.60;12.60;;;;;;;-1.15;100.00;98802.94;109187;1256;59998;-52
2024/01/04 01:46:05;;;;;;;22.20;11.60;;;;;;;-1.12;100.00;98798.88;109252;1253;60019;-52
2024/01/04 01:48:33;;;;;;;24.90;14.40;;;;;;;-1.10;100.00;98792.38;109185;1253;74720;-52
2024/01/04 02:20:39;;;;;;;17.80;12.40;;;;;;;-1.60;100.00;98754.56;103531;1279;613664;-54
2024/01/04 02:23:07;;;;;;;20.70;12.80;;;;;;;-1.47;100.00;98746.60;104625;1266;144889;-53
2024/01/04 02:25:34;;;;;;;21.00;13.40;;;;;;;-1.48;100.00;98749.70;104683;1267;59304;-53
2024/01/04 02:28:02;;;;;;;19.20;12.00;;;;;;;-1.44;100.00;98746.84;104928;1266;72322;-53
2024/01/04 02:30:30;;;;;;;20.20;12.90;;;;;;;-1.32;100.00;98746.55;104646;1267;66048;-53
2024/01/04 02:33:00;;;;;;;18.70;12.00;;;;;;;-1.27;100.00;98748.59;104891;1266;72714;-52
2024/01/04 02:41:50;;;;;;;18.90;11.50;;;;;;;-1.03;100.00;98751.41;103227;1282;616865;-52
2024/01/04 02:44:17;;;;;;;20.90;12.20;;;;;;;-0.96;100.00;98741.62;104794;1263;59286;-52
2024/01/04 02:46:45;;;;;;;21.40;13.80;;;;;;;-0.93;100.00;98741.01;104948;1264;60164;-52
2024/01/04 02:49:12;;;;;;;21.60;13.40;;;;;;;-0.93;100.00;98742.20;104930;1264;71309;-52
2024/01/04 02:51:39;;;;;;;23.00;14.20;;;;;;;-0.97;100.00;98737.27;105080;1263;67246;-52
2024/01/04 02:54:07;;;;;;;24.60;14.50;;;;;;;-0.93;100.00;98739.56;105305;1256;215892;-52
2024/01/04 02:56:34;;;;;;;24.70;14.30;;;;;;;-0.92;100.00;98737.65;105914;1254;60209;-52
2024/01/04 02:59:01;;;;;;;22.90;13.30;;;;;;;-0.96;100.00;98733.59;105679;1254;59841;-51
2024/01/04 03:01:29;;;;;;;23.00;12.80;;;;;;;-0.97;100.00;98733.72;105633;1254;71301;-53
2024/01/04 03:03:56;;;;;;;21.20;14.00;;;;;;;-1.00;100.00;98728.85;105956;1254;65744;-54
2024/01/04 03:06:27;;;;;;;19.20;13.50;;;;;;;-1.00;100.00;98731.90;105517;1258;70720;-53
2024/01/04 03:08:54;;;;;;;23.70;13.20;;;;;;;-1.02;100.00;98730.58;105685;1254;60892;-53
2024/01/04 03:11:21;;;;;;;20.60;13.20;;;;;;;-1.02;100.00;98729.55;105643;1260;59662;-54
2024/01/04 03:13:48;;;;;;;18.40;12.10;;;;;;;-1.00;100.00;98728.09;105947;1254;72982;-56
2024/01/04 03:16:15;;;;;;;18.60;13.00;;;;;;;-0.99;100.00;98728.36;105986;1254;66931;-53
2024/01/04 03:18:42;;;;;;;19.90;12.70;;;;;;;-0.99;100.00;98727.73;105580;1254;72854;-53
2024/01/04 03:21:09;;;;;;;20.90;13.40;;;;;;;-0.98;100.00;98733.42;105673;1254;60878;-53
2024/01/04 03:23:36;;;;;;;20.00;12.30;;;;;;;-0.99;100.00;98731.80;105698;1253;60244;-53
2024/01/04 03:26:04;;;;;;;24.20;13.40;;;;;;;-1.00;100.00;98728.70;105632;1257;71621;-53
2024/01/04 03:28:31;;;;;;;20.20;13.20;;;;;;;-0.98;100.00;98721.52;105765;1254;67300;-53
2024/01/04 03:30:58;;;;;;;19.00;12.90;;;;;;;-0.95;100.00;98726.17;105587;1254;72676;-53
2024/01/04 03:33:25;;;;;;;20.20;14.00;;;;;;;-0.95;100.00;98723.44;105610;1257;59505;-53
2024/01/04 03:35:52;;;;;;;25.30;13.80;;;;;;;-0.96;100.00;98726.27;105739;1253;60208;-53
2024/01/04 03:38:19;;;;;;;21.70;13.20;;;;;;;-0.96;100.00;98723.17;106117;1254;73044;-53
2024/01/04 03:40:46;;;;;;;23.00;13.80;;;;;;;-0.94;100.00;98726.86;106006;1256;65913;-53
2024/01/04 03:43:13;;;;;;;20.40;12.30;;;;;;;-0.94;100.00;98724.35;105630;1254;72687;-54
2024/01/04 03:45:40;;;;;;;23.60;15.10;;;;;;;-0.92;100.00;98725.41;106115;1251;59765;-54
2024/01/04 03:48:07;;;;;;;19.10;12.80;;;;;;;-0.92;100.00;98726.88;105998;1253;59755;-53
2024/01/04 03:50:35;;;;;;;18.50;12.10;;;;;;;-0.89;100.00;98728.63;106452;1250;71376;-53
2024/01/04 03:53:02;;;;;;;20.70;12.40;;;;;;;-0.81;100.00;98727.55;106136;1251;66927;-54
2024/01/04 03:55:29;;;;;;;22.10;12.50;;;;;;;-0.85;100.00;98725.34;106265;1250;71174;-54
2024/01/04 03:57:56;;;;;;;21.00;13.40;;;;;;;-0.85;100.00;98726.27;105882;1251;59620;-54
2024/01/04 04:00:23;;;;;;;18.20;12.20;;;;;;;-0.84;100.00;98726.12;105902;1254;60277;-53
2024/01/04 04:02:51;;;;;;;20.70;13.00;;;;;;;-0.80;100.00;98727.30;105931;1254;73037;-54
2024/01/04 04:05:18;;;;;;;20.30;12.00;;;;;;;-0.80;100.00;98735.48;106055;1251;66861;-53
2024/01/04 04:07:45;;;;;;;18.00;12.80;;;;;;;-0.81;100.00;98737.59;105924;1253;72104;-52
2024/01/04 04:10:12;;;;;;;20.60;11.90;;;;;;;-0.82;100.00;98738.52;106271;1249;59807;-53
2024/01/04 04:12:39;;;;;;;19.50;13.00;;;;;;;-0.81;100.00;98739.77;107045;1249;60112;-52
2024/01/04 04:15:08;;;;;;;22.80;12.90;;;;;;;-0.79;100.00;98737.77;106066;1251;72939;-53
2024/01/04 04:17:35;;;;;;;21.20;12.80;;;;;;;-0.78;100.00;98742.25;105812;1250;66922;-52
2024/01/04 04:20:03;;;;;;;16.90;11.50;;;;;;;-0.75;100.00;98746.06;106037;1253;72614;-53
2024/01/04 04:22:31;;;;;;;19.10;12.40;;;;;;;-0.75;100.00;98744.30;105795;1254;60889;-52
2024/01/04 04:24:58;;;;;;;17.60;11.90;;;;;;;-0.74;100.00;98743.54;106114;1250;60364;-52
2024/01/04 04:27:24;;;;;;;19.90;12.40;;;;;;;-0.70;100.00;98750.66;106004;1251;74251;-52
2024/01/04 04:29:51;;;;;;;20.50;12.60;;;;;;;-0.66;100.00;98747.43;106239;1250;67123;-54
2024/01/04 04:32:18;;;;;;;19.50;12.70;;;;;;;-0.64;100.00;98744.80;105896;1254;72695;-52
2024/01/04 04:34:45;;;;;;;22.30;13.80;;;;;;;-0.63;100.00;98745.92;106089;1251;61110;-53
2024/01/04 04:37:14;;;;;;;20.00;12.30;;;;;;;-0.64;100.00;98741.80;105948;1254;59644;-53
2024/01/04 04:39:41;;;;;;;19.30;12.10;;;;;;;-0.60;100.00;98746.96;105979;1250;73197;-53
2024/01/04 04:42:08;;;;;;;20.50;12.90;;;;;;;-0.56;100.00;98747.27;105870;1250;66298;-53
2024/01/04 04:44:35;;;;;;;20.10;13.90;;;;;;;-0.55;100.00;98749.91;106107;1251;71294;-53
2024/01/04 04:47:03;;;;;;;22.10;14.30;;;;;;;-0.55;100.00;98750.80;105888;1251;61211;-52
2024/01/04 04:49:30;;;;;;;21.40;13.00;;;;;;;-0.56;100.00;98748.12;105914;1251;60835;-52
2024/01/04 04:51:57;;;;;;;21.40;13.00;;;;;;;-0.55;100.00;98753.88;105968;1250;71744;-53
2024/01/04 04:54:25;;;;;;;20.20;12.70;;;;;;;-0.53;100.00;98750.25;106171;1250;65994;-53
2024/01/04 04:56:52;;;;;;;20.80;13.10;;;;;;;-0.49;100.00;98753.23;105837;1251;73378;-53
2024/01/04 04:59:19;;;;;;;19.80;13.60;;;;;;;-0.47;100.00;98753.90;105912;1254;59849;-55
2024/01/04 05:01:46;;;;;;;21.70;13.60;;;;;;;-0.44;100.00;98752.13;106235;1250;59625;-53
2024/01/04 05:04:13;;;;;;;21.80;13.20;;;;;;;-0.40;100.00;98759.58;105986;1250;73694;-53
2024/01/04 05:06:40;;;;;;;21.60;13.60;;;;;;;-0.38;100.00;98759.32;106114;1250;67895;-53
2024/01/04 05:09:08;;;;;;;19.80;13.20;;;;;;;-0.36;100.00;98765.45;106129;1251;72791;-53
2024/01/04 05:11:35;;;;;;;32.30;15.70;;;;;;;-0.35;100.00;98763.71;105974;1254;59664;-55
2024/01/04 05:14:02;;;;;;;20.30;13.20;;;;;;;-0.33;100.00;98764.64;105910;1253;59535;-53
2024/01/04 05:16:30;;;;;;;85.50;23.90;;;;;;;-0.33;100.00;98763.96;106108;1251;73151;-52
2024/01/04 05:18:59;;;;;;;302.40;73.10;;;;;;;-0.29;100.00;98767.98;106260;1254;65905;-53
2024/01/04 05:21:32;;;;;;;102.90;32.30;;;;;;;-0.23;100.00;98769.71;106185;1250;72624;-53
2024/01/04 05:23:59;;;;;;;121.90;41.00;;;;;;;-0.19;100.00;98764.72;105898;1253;59669;-53
2024/01/04 05:26:26;;;;;;;31.60;16.80;;;;;;;-0.17;100.00;98765.05;105957;1250;60491;-53
2024/01/04 05:28:53;;;;;;;73.30;31.90;;;;;;;-0.18;100.00;98766.80;106317;1251;73877;-53
2024/01/04 05:31:20;;;;;;;104.50;54.30;;;;;;;-0.18;100.00;98771.58;106043;1251;67179;-54
2024/01/04 05:33:48;;;;;;;45.40;26.70;;;;;;;-0.18;100.00;98768.15;105937;1251;72990;-53
2024/01/04 05:36:15;;;;;;;107.50;77.70;;;;;;;-0.16;100.00;98775.81;106010;1251;59650;-53
2024/01/04 05:38:42;;;;;;;27.30;18.00;;;;;;;-0.11;100.00;98781.13;106208;1250;59685;-53
2024/01/04 05:41:10;;;;;;;24.30;15.50;;;;;;;-0.07;100.00;98786.36;105961;1251;73203;-53
2024/01/04 05:43:36;;;;;;;24.30;16.60;;;;;;;-0.04;100.00;98786.53;106276;1251;67068;-52
2024/01/04 05:46:04;;;;;;;20.60;13.90;;;;;;;0.02;100.00;98791.16;105797;1251;72782;-53
2024/01/04 05:48:31;;;;;;;19.70;13.30;;;;;;;0.07;100.00;98792.19;105952;1254;59777;-53
2024/01/04 05:50:59;;;;;;;28.60;21.20;;;;;;;0.10;100.00;98796.80;105979;1251;59781;-53
2024/01/04 05:53:26;;;;;;;24.00;14.60;;;;;;;0.13;100.00;98795.65;106325;1250;73058;-53
2024/01/04 05:55:53;;;;;;;23.60;13.80;;;;;;;0.17;100.00;98788.23;105983;1254;65591;-53
2024/01/04 05:58:20;;;;;;;23.20;14.20;;;;;;;0.23;100.00;98787.08;105935;1254;71526;-53
2024/01/04 06:00:48;;;;;;;21.10;14.00;;;;;;;0.27;100.00;98790.02;106467;1250;59224;-54
2024/01/04 06:03:16;;;;;;;22.90;14.20;;;;;;;0.28;100.00;98786.37;105893;1253;59624;-53
2024/01/04 06:05:44;;;;;;;19.90;12.70;;;;;;;0.30;100.00;98784.23;106300;1250;71808;-55
2024/01/04 06:08:11;;;;;;;27.10;15.70;;;;;;;0.30;100.00;98784.48;105788;1252;65906;-54
2024/01/04 06:10:38;;;;;;;24.10;15.60;;;;;;;0.30;100.00;98785.98;105935;1250;73233;-53
2024/01/04 06:13:07;;;;;;;21.10;13.20;;;;;;;0.33;100.00;98791.64;106083;1250;61233;-54
2024/01/04 06:15:34;;;;;;;23.60;14.50;;;;;;;0.38;100.00;98794.19;106040;1256;59623;-56
2024/01/04 06:18:01;;;;;;;24.40;15.80;;;;;;;0.41;100.00;98799.23;105876;1251;72712;-54
2024/01/04 06:20:29;;;;;;;28.10;16.40;;;;;;;0.43;100.00;98805.30;105952;1251;65852;-54
2024/01/04 06:22:56;;;;;;;27.00;15.90;;;;;;;0.46;100.00;98809.59;106092;1250;72474;-55
2024/01/04 06:25:23;;;;;;;26.50;15.10;;;;;;;0.50;100.00;98808.21;106217;1250;59883;-54
2024/01/04 06:27:50;;;;;;;29.30;14.90;;;;;;;0.52;100.00;98805.25;106183;1251;60314;-55
2024/01/04 06:30:18;;;;;;;25.70;15.00;;;;;;;0.57;100.00;98801.35;106072;1251;71837;-55
2024/01/04 06:32:48;;;;;;;28.80;16.80;;;;;;;0.59;100.00;98803.02;106102;1253;67068;-55
2024/01/04 06:35:15;;;;;;;29.80;16.50;;;;;;;0.64;100.00;98805.03;106474;1250;72665;-55
2024/01/04 06:37:42;;;;;;;28.50;15.40;;;;;;;0.68;100.00;98807.70;106036;1250;61211;-55
2024/01/04 06:40:10;;;;;;;27.80;15.80;;;;;;;0.73;100.00;98808.75;105923;1254;59666;-55
2024/01/04 06:42:38;;;;;;;33.10;18.30;;;;;;;0.75;100.00;98813.91;106039;1250;72721;-55
2024/01/04 06:45:05;;;;;;;35.60;17.60;;;;;;;0.78;100.00;98816.04;106470;1250;65828;-56
2024/01/04 06:47:33;;;;;;;37.60;19.50;;;;;;;0.80;100.00;98816.15;106362;1250;72703;-57
2024/01/04 06:50:00;;;;;;;32.90;19.30;;;;;;;0.84;100.00;98815.90;106020;1251;61293;-55
2024/01/04 06:52:44;;;;;;;33.30;18.60;;;;;;;0.89;100.00;98819.30;106031;1251;60453;-56
2024/01/04 06:55:12;;;;;;;36.20;19.60;;;;;;;0.90;100.00;98818.98;106075;1254;74325;-57
2024/01/04 06:57:39;;;;;;;31.60;18.00;;;;;;;0.93;100.00;98818.72;105956;1251;66919;-56
2024/01/04 07:00:10;;;;;;;32.30;17.20;;;;;;;0.96;100.00;98818.42;105878;1251;72773;-56
2024/01/04 07:02:37;;;;;;;29.90;15.80;;;;;;;0.99;100.00;98817.28;105822;1254;60437;-56
2024/01/04 07:05:05;;;;;;;31.70;17.00;;;;;;;1.02;100.00;98821.94;106165;1251;60558;-57
2024/01/04 07:07:36;;;;;;;29.40;17.90;;;;;;;1.05;100.00;98821.77;106097;1254;73654;-56
2024/01/04 07:10:03;;;;;;;34.10;18.10;;;;;;;1.10;100.00;98816.63;105730;1251;66082;-56
2024/01/04 07:12:31;;;;;;;34.40;19.00;;;;;;;1.12;100.00;98811.61;105705;1251;72890;-56
2024/01/04 07:14:58;;;;;;;37.40;20.00;;;;;;;1.16;100.00;98806.73;105802;1251;61220;-58
2024/01/04 07:17:25;;;;;;;41.40;18.70;;;;;;;1.19;100.00;98812.05;105769;1254;60382;-57
2024/01/04 07:19:53;;;;;;;37.20;20.00;;;;;;;1.24;100.00;98817.08;106161;1250;72263;-57
2024/01/04 07:22:20;;;;;;;40.90;20.80;;;;;;;1.26;100.00;98814.98;105708;1252;65889;-58
2024/01/04 07:24:47;;;;;;;34.80;19.00;;;;;;;1.27;100.00;98813.55;105755;1254;71343;-56
2024/01/04 07:27:14;;;;;;;39.70;21.30;;;;;;;1.28;100.00;98809.54;105683;1254;60393;-58
2024/01/04 07:29:41;;;;;;;39.30;22.00;;;;;;;1.30;100.00;98808.63;105762;1251;60472;-56
2024/01/04 07:32:09;;;;;;;42.60;23.60;;;;;;;1.34;100.00;98811.28;105745;1251;72578;-55
2024/01/04 07:34:39;;;;;;;36.90;21.00;;;;;;;1.37;100.00;98811.48;105702;1251;67131;-56
2024/01/04 07:37:07;;;;;;;39.90;21.40;;;;;;;1.38;100.00;98808.81;105706;1250;72363;-56
2024/01/04 07:39:33;;;;;;;51.60;27.40;;;;;;;1.40;100.00;98806.48;105791;1251;61112;-56
2024/01/04 07:42:01;;;;;;;64.70;36.30;;;;;;;1.45;100.00;98805.52;105703;1251;60437;-56
2024/01/04 07:44:28;;;;;;;41.50;23.10;;;;;;;1.45;100.00;98807.50;105946;1251;73358;-56
2024/01/04 07:46:55;;;;;;;41.80;22.30;;;;;;;1.48;100.00;98814.43;105784;1254;67114;-56
2024/01/04 07:49:22;;;;;;;42.20;22.30;;;;;;;1.48;100.00;98814.80;105766;1251;72724;-58
2024/01/04 07:51:50;;;;;;;40.80;22.20;;;;;;;1.51;100.00;98815.17;105843;1254;60719;-57
2024/01/04 07:54:20;;;;;;;42.30;22.00;;;;;;;1.53;100.00;98815.92;105966;1251;60523;-58
2024/01/04 07:56:48;;;;;;;43.40;21.40;;;;;;;1.57;100.00;98812.04;105734;1254;73704;-58
2024/01/04 07:59:15;;;;;;;44.00;23.20;;;;;;;1.64;100.00;98812.54;105873;1251;67124;-58
2024/01/04 08:01:42;;;;;;;42.50;23.90;;;;;;;1.71;100.00;98814.56;105764;1254;72584;-57
2024/01/04 08:04:10;;;;;;;45.20;22.90;;;;;;;1.77;100.00;98817.93;105938;1254;60422;-57
2024/01/04 08:06:37;;;;;;;39.00;22.00;;;;;;;1.82;100.00;98817.70;105917;1251;61503;-58
2024/01/04 08:09:04;;;;;;;38.80;21.70;;;;;;;1.89;100.00;98818.81;105915;1254;73798;-58
2024/01/04 08:11:31;;;;;;;39.60;21.90;;;;;;;1.99;100.00;98828.58;105725;1254;67200;-59
2024/01/04 08:13:58;;;;;;;41.30;21.00;;;;;;;2.05;100.00;98822.45;106029;1254;72670;-57
2024/01/04 08:16:25;;;;;;;40.60;21.70;;;;;;;2.09;100.00;98827.27;106043;1251;61322;-56
2024/01/04 08:18:52;;;;;;;37.40;20.80;;;;;;;2.14;100.00;98828.09;105907;1251;60409;-56
2024/01/04 08:21:20;;;;;;;41.70;21.70;;;;;;;2.22;100.00;98829.24;105915;1251;73870;-58
2024/01/04 08:23:50;;;;;;;37.10;23.20;;;;;;;2.29;100.00;98828.77;105895;1252;65732;-56
2024/01/04 08:26:17;;;;;;;35.00;20.60;;;;;;;2.34;100.00;98830.68;106113;1251;72690;-57
2024/01/04 08:28:43;;;;;;;33.10;19.40;;;;;;;2.37;100.00;98830.77;105637;1251;60901;-56
2024/01/04 08:31:11;;;;;;;34.70;19.80;;;;;;;2.44;100.00;98822.01;105551;1250;60542;-58
2024/01/04 08:33:38;;;;;;;27.90;18.10;;;;;;;2.55;100.00;98815.54;105953;1251;72792;-56
2024/01/04 08:36:05;;;;;;;30.60;18.60;;;;;;;2.72;100.00;98811.60;105799;1251;65905;-57
2024/01/04 08:38:33;;;;;;;29.90;17.70;;;;;;;2.91;100.00;98802.98;105862;1254;72977;-58
2024/01/04 08:41:00;;;;;;;27.90;17.00;;;;;;;3.08;100.00;98801.45;105871;1254;61227;-59
2024/01/04 08:43:28;;;;;;;25.90;16.80;;;;;;;3.24;100.00;98800.38;105855;1254;60360;-61
2024/01/04 08:45:55;;;;;;;26.10;16.60;;;;;;;3.42;100.00;98799.55;106235;1254;73821;-60
2024/01/04 08:48:22;;;;;;;26.10;16.30;;;;;;;3.60;100.00;98797.46;106112;1254;68537;-61
2024/01/04 08:50:50;;;;;;;27.80;18.90;;;;;;;3.78;100.00;98795.77;106084;1252;74226;-63
2024/01/04 08:53:20;;;;;;;33.00;20.70;;;;;;;3.97;100.00;98800.71;105831;1254;62033;-59
2024/01/04 08:55:48;;;;;;;29.10;20.60;;;;;;;4.14;100.00;98804.53;106325;1254;61920;-59
2024/01/04 08:58:15;;;;;;;37.10;21.50;;;;;;;4.27;100.00;98808.85;106189;1254;72343;-61
2024/01/04 09:00:42;;;;;;;35.00;22.90;;;;;;;4.35;100.00;98820.14;106223;1251;67117;-62
2024/01/04 09:03:10;;;;;;;37.10;24.80;;;;;;;4.42;100.00;98825.91;105605;1251;73039;-61
2024/01/04 09:05:37;;;;;;;39.00;25.50;;;;;;;4.45;100.00;98824.37;105672;1251;63630;-62
2024/01/04 09:08:05;;;;;;;34.10;22.90;;;;;;;4.44;100.00;98825.52;105700;1251;60430;-64
2024/01/04 09:10:32;;;;;;;27.60;18.40;;;;;;;4.42;100.00;98822.33;105968;1254;73627;-62
2024/01/04 09:12:59;;;;;;;33.30;18.60;;;;;;;4.40;100.00;98821.00;105974;1254;67358;-61
2024/01/04 09:15:26;;;;;;;24.50;17.00;;;;;;;4.39;100.00;98824.67;105976;1251;72701;-62
2024/01/04 09:17:54;;;;;;;23.50;15.80;;;;;;;4.37;100.00;98825.54;105950;1251;62015;-64
2024/01/04 09:20:23;;;;;;;25.60;17.20;;;;;;;4.36;100.00;98824.56;105854;1251;61697;-62
2024/01/04 09:22:50;;;;;;;25.40;16.60;;;;;;;4.33;100.00;98825.08;105851;1251;75387;-62
2024/01/04 09:25:18;;;;;;;25.80;16.80;;;;;;;4.29;100.00;98823.46;106314;1250;68435;-63
2024/01/04 09:27:45;;;;;;;23.10;15.60;;;;;;;4.28;100.00;98818.69;106011;1251;72692;-60
2024/01/04 09:30:13;;;;;;;32.50;19.60;;;;;;;4.31;100.00;98813.06;106014;1252;61930;-61
2024/01/04 09:32:43;;;;;;;22.80;16.40;;;;;;;4.35;100.00;98816.17;105793;1251;60819;-61
2024/01/04 09:35:10;;;;;;;25.50;16.10;;;;;;;4.40;100.00;98817.67;105875;1251;75182;-63
2024/01/04 09:37:37;;;;;;;24.70;16.20;;;;;;;4.46;100.00;98816.16;105701;1251;67109;-63
2024/01/04 09:40:05;;;;;;;22.30;14.60;;;;;;;4.53;100.00;98820.33;106240;1256;74450;-63
2024/01/04 09:42:37;;;;;;;22.00;15.10;;;;;;;4.59;100.00;98822.13;105847;1251;61974;-64
2024/01/04 09:45:06;;;;;;;22.70;15.20;;;;;;;4.68;100.00;98821.86;105454;1256;60383;-62
2024/01/04 09:47:34;;;;;;;22.80;16.10;;;;;;;4.73;100.00;98821.26;105490;1251;73741;-63
2024/01/04 09:50:01;;;;;;;25.10;16.20;;;;;;;4.78;100.00;98821.19;105691;1251;66279;-62
2024/01/04 09:52:28;;;;;;;21.90;14.20;;;;;;;4.83;100.00;98820.19;105967;1251;72569;-62
2024/01/04 09:54:56;;;;;;;22.10;14.50;;;;;;;4.90;100.00;98824.74;105704;1259;61999;-61
2024/01/04 09:57:23;;;;;;;19.50;13.40;;;;;;;4.93;100.00;98823.36;105712;1251;61790;-61
2024/01/04 09:59:50;;;;;;;21.10;13.30;;;;;;;4.95;100.00;98824.29;105633;1255;73970;-61
2024/01/04 10:02:17;;;;;;;20.80;13.60;;;;;;;4.95;100.00;98824.20;106199;1251;67240;-61
2024/01/04 10:04:44;;;;;;;22.90;14.30;;;;;;;4.95;100.00;98826.84;105522;1251;73015;-62
2024/01/04 10:07:17;;;;;;;20.00;12.90;;;;;;;4.98;100.00;98820.13;105657;1250;63395;-62
2024/01/04 10:09:47;;;;;;;23.00;13.60;;;;;;;5.02;100.00;98816.30;105686;1254;60524;-62
2024/01/04 10:12:15;;;;;;;21.00;12.90;;;;;;;5.09;100.00;98814.55;105822;1252;73847;-61
2024/01/04 10:14:42;;;;;;;23.20;14.30;;;;;;;5.22;100.00;98819.56;105950;1251;67653;-60
2024/01/04 10:17:11;;;;;;;21.10;14.40;;;;;;;5.36;100.00;98816.21;105410;1257;72506;-61
2024/01/04 10:19:40;;;;;;;19.80;12.90;;;;;;;5.49;100.00;98813.39;105705;1251;63395;-62
2024/01/04 10:22:11;;;;;;;20.60;13.70;;;;;;;5.56;100.00;98815.36;105729;1255;60435;-61
2024/01/04 10:24:38;;;;;;;21.40;13.00;;;;;;;5.63;100.00;98815.13;105553;1257;73683;-60
2024/01/04 10:27:07;;;;;;;24.10;15.80;;;;;;;5.66;100.00;98814.73;105638;1256;66042;-61
2024/01/04 10:29:35;;;;;;;19.70;12.50;;;;;;;5.70;100.00;98813.88;105614;1257;72980;-61
2024/01/04 10:32:12;;;;;;;23.30;14.60;;;;;;;5.73;100.00;98812.48;105632;1256;60842;-60
2024/01/04 10:34:40;;;;;;;20.20;13.30;;;;;;;5.77;100.00;98816.16;106029;1255;60440;-62
2024/01/04 10:37:08;;;;;;;21.20;13.70;;;;;;;5.81;100.00;98814.13;105953;1251;72922;-60
2024/01/04 10:39:36;;;;;;;24.50;13.70;;;;;;;5.85;100.00;98809.86;105763;1251;67982;-61
2024/01/04 10:42:05;;;;;;;18.00;12.30;;;;;;;5.90;100.00;98814.63;106034;1251;74638;-59
2024/01/04 10:44:36;;;;;;;23.80;14.60;;;;;;;5.91;100.00;98814.77;106032;1251;62374;-60
2024/01/04 10:47:04;;;;;;;22.00;14.50;;;;;;;5.95;100.00;98819.11;105816;1251;60472;-61
2024/01/04 10:49:31;;;;;;;22.90;14.90;;;;;;;5.99;100.00;98819.50;105813;1256;75522;-61
2024/01/04 10:52:01;;;;;;;21.60;15.70;;;;;;;6.05;100.00;98826.38;106035;1251;68184;-61
2024/01/04 10:54:31;;;;;;;25.00;16.10;;;;;;;6.13;100.00;98825.48;105758;1251;72067;-61
2024/01/04 10:56:59;;;;;;;21.40;14.80;;;;;;;6.18;100.00;98826.47;106111;1251;62027;-60
2024/01/04 10:59:30;;;;;;;23.40;16.40;;;;;;;6.25;100.00;98828.18;106121;1251;60684;-60
2024/01/04 11:01:58;;;;;;;24.00;16.60;;;;;;;6.33;100.00;98828.39;105681;1257;75487;-60
2024/01/04 11:04:26;;;;;;;19.80;15.30;;;;;;;6.40;100.00;98829.79;105681;1251;69035;-59
2024/01/04 11:06:57;;;;;;;20.20;14.40;;;;;;;6.44;100.00;98829.16;105710;1256;73272;-60
2024/01/04 11:09:25;;;;;;;23.00;15.60;;;;;;;6.45;100.00;98825.55;106004;1251;62358;-61
2024/01/04 11:11:56;;;;;;;23.00;14.40;;;;;;;6.51;100.00;98824.42;105776;1256;62101;-58
2024/01/04 11:14:24;;;;;;;22.40;15.50;;;;;;;6.53;100.00;98820.98;105863;1255;75327;-57
2024/01/04 11:17:05;;;;;;;20.30;13.80;;;;;;;6.56;100.00;98820.23;105850;1251;68853;-58
2024/01/04 11:20:08;;;;;;;22.80;14.80;;;;;;;6.57;100.00;98828.00;105841;1251;74141;-58
2024/01/04 11:22:46;;;;;;;23.10;15.80;;;;;;;6.56;100.00;98829.05;105848;1251;63467;-58
2024/01/04 11:25:26;;;;;;;23.60;15.50;;;;;;;6.55;100.00;98828.63;105887;1256;61872;-58
2024/01/04 11:27:53;;;;;;;21.70;14.60;;;;;;;6.53;100.00;98826.23;106181;1256;73859;-57
2024/01/04 11:30:20;;;;;;;21.30;13.50;;;;;;;6.53;100.00;98830.13;106089;1251;68458;-57
2024/01/04 11:32:48;;;;;;;18.80;12.80;;;;;;;6.54;100.00;98829.66;105899;1251;71393;-58
2024/01/04 11:35:15;;;;;;;20.70;13.80;;;;;;;6.54;100.00;98829.73;105771;1256;60548;-59
2024/01/04 11:37:50;;;;;;;21.40;14.50;;;;;;;6.52;100.00;98827.26;105728;1251;61701;-59
2024/01/04 11:40:26;;;;;;;21.30;12.90;;;;;;;6.52;100.00;98828.11;105737;1256;75413;-59
2024/01/04 11:42:53;;;;;;;19.30;13.30;;;;;;;6.56;100.00;98827.92;105818;1251;67744;-59